createdAt,value
2022-09-26T00:01:20.698Z,63.50
2022-09-26T00:03:49.184Z,63.40
2022-09-26T00:06:18.001Z,63.20
2022-09-26T00:08:46.235Z,63.20
2022-09-26T00:11:15.529Z,63.00
2022-09-26T00:13:42.921Z,63.30
2022-09-26T00:16:11.579Z,63.30
2022-09-26T00:18:39.346Z,63.00
2022-09-26T00:21:07.220Z,62.80
2022-09-26T00:23:34.186Z,62.70
2022-09-26T00:26:00.920Z,62.80
2022-09-26T00:28:28.838Z,63.00
2022-09-26T00:30:56.560Z,63.10
2022-09-26T00:33:24.153Z,63.20
2022-09-26T00:35:52.552Z,63.20
2022-09-26T00:38:19.439Z,62.90
2022-09-26T00:40:46.553Z,62.60
2022-09-26T00:43:47.567Z,62.70
2022-09-26T00:46:32.631Z,62.90
2022-09-26T00:49:25.289Z,63.30
2022-09-26T00:52:18.527Z,63.70
2022-09-26T00:54:49.890Z,64.30
2022-09-26T00:57:24.205Z,63.80
2022-09-26T00:59:57.298Z,63.50
2022-09-26T01:02:27.440Z,63.30
2022-09-26T01:04:56.429Z,63.40
2022-09-26T01:07:26.117Z,64.10
2022-09-26T01:09:53.269Z,63.60
2022-09-26T01:12:21.721Z,64.50
2022-09-26T01:14:52.494Z,64.20
2022-09-26T01:17:20.228Z,63.90
2022-09-26T01:19:54.636Z,64.80
2022-09-26T01:23:06.740Z,64.40
2022-09-26T01:25:57.755Z,64.20
2022-09-26T01:28:42.686Z,64.20
2022-09-26T01:31:12.141Z,63.90
2022-09-26T01:33:44.966Z,63.80
2022-09-26T01:36:21.047Z,63.70
2022-09-26T01:39:14.479Z,64.50
2022-09-26T01:41:55.694Z,64.50
2022-09-26T01:44:41.442Z,64.40
2022-09-26T01:47:16.889Z,64.30
2022-09-26T01:49:53.937Z,64.50
2022-09-26T01:52:37.835Z,64.20
2022-09-26T01:55:11.166Z,64.50
2022-09-26T01:58:05.889Z,64.40
2022-09-26T02:00:36.178Z,64.30
2022-09-26T02:03:06.373Z,64.30
2022-09-26T02:05:38.406Z,64.10
2022-09-26T02:08:09.857Z,64.00
2022-09-26T02:11:04.048Z,64.10
2022-09-26T02:13:41.605Z,64.10
2022-09-26T02:16:21.943Z,64.00
2022-09-26T02:18:55.011Z,63.90
2022-09-26T02:21:23.912Z,63.80
2022-09-26T02:23:53.058Z,63.60
2022-09-26T02:26:19.951Z,63.60
2022-09-26T02:28:47.473Z,64.00
2022-09-26T02:31:21.985Z,64.50
2022-09-26T02:33:50.193Z,64.80
2022-09-26T02:36:19.147Z,65.40
2022-09-26T02:38:46.339Z,65.60
2022-09-26T02:41:29.073Z,66.70
2022-09-26T02:44:17.722Z,65.90
2022-09-26T02:47:10.183Z,65.10
2022-09-26T02:49:47.276Z,64.80
2022-09-26T02:52:32.511Z,64.70
2022-09-26T02:55:09.607Z,65.30
2022-09-26T02:58:24.258Z,66.30
2022-09-26T03:01:10.756Z,66.90
2022-09-26T03:03:51.611Z,66.40
2022-09-26T03:06:24.162Z,66.10
2022-09-26T03:08:51.762Z,66.40
2022-09-26T03:11:24.784Z,66.20
2022-09-26T03:13:54.552Z,66.60
2022-09-26T03:16:23.886Z,66.00
2022-09-26T03:18:56.579Z,66.60
2022-09-26T03:21:23.466Z,66.60
2022-09-26T03:23:51.005Z,65.90
2022-09-26T03:26:20.397Z,65.90
2022-09-26T03:28:47.042Z,65.80
2022-09-26T03:31:13.721Z,67.50
2022-09-26T03:33:40.923Z,68.70
2022-09-26T03:36:09.412Z,67.40
2022-09-26T03:38:36.162Z,66.90
2022-09-26T03:41:02.889Z,66.30
2022-09-26T03:43:31.394Z,66.60
2022-09-26T03:46:06.200Z,67.00
2022-09-26T03:48:33.891Z,66.70
2022-09-26T03:51:05.645Z,66.40
2022-09-26T03:53:37.291Z,66.70
2022-09-26T03:56:12.361Z,66.50
2022-09-26T03:58:39.403Z,66.40
2022-09-26T04:01:12.432Z,66.40
2022-09-26T04:03:46.436Z,66.30
2022-09-26T04:06:19.734Z,66.50
2022-09-26T04:08:48.301Z,65.90
2022-09-26T04:11:17.354Z,65.60
2022-09-26T04:13:52.052Z,65.80
2022-09-26T04:16:21.288Z,66.00
2022-09-26T04:18:48.103Z,65.80
2022-09-26T04:21:15.679Z,65.70
2022-09-26T04:23:43.979Z,65.50
2022-09-26T04:26:14.872Z,65.70
2022-09-26T04:28:43.404Z,65.50
2022-09-26T04:31:13.217Z,66.50
2022-09-26T04:33:40.568Z,67.00
2022-09-26T04:36:10.223Z,66.90
2022-09-26T04:38:37.959Z,66.60
2022-09-26T04:41:05.801Z,66.70
2022-09-26T04:43:32.565Z,67.00
2022-09-26T04:45:59.288Z,67.80
2022-09-26T04:48:26.058Z,67.30
2022-09-26T04:50:52.968Z,67.50
2022-09-26T04:53:19.997Z,67.40
2022-09-26T04:55:47.924Z,66.90
2022-09-26T04:58:16.525Z,66.50
2022-09-26T05:00:47.409Z,66.20
2022-09-26T05:03:14.736Z,67.00
2022-09-26T05:05:42.015Z,66.50
2022-09-26T05:08:09.917Z,67.20
2022-09-26T05:10:36.568Z,66.50
2022-09-26T05:13:03.394Z,66.20
2022-09-26T05:15:30.753Z,66.30
2022-09-26T05:18:00.606Z,65.70
2022-09-26T05:20:31.591Z,66.40
2022-09-26T05:22:58.847Z,65.40
2022-09-26T05:25:45.701Z,65.60
2022-09-26T05:28:12.897Z,65.50
2022-09-26T05:30:40.724Z,65.60
2022-09-26T05:33:07.794Z,65.10
2022-09-26T05:35:35.259Z,65.00
2022-09-26T05:38:03.612Z,65.10
2022-09-26T05:40:49.535Z,65.00
2022-09-26T05:43:16.318Z,65.20
2022-09-26T05:45:43.320Z,65.10
2022-09-26T05:48:09.965Z,65.00
2022-09-26T05:50:40.426Z,65.10
2022-09-26T05:53:09.937Z,65.10
2022-09-26T05:55:39.269Z,64.90
2022-09-26T05:58:06.689Z,65.20
2022-09-26T06:00:34.790Z,65.40
2022-09-26T06:03:03.638Z,65.60
2022-09-26T06:05:32.287Z,66.50
2022-09-26T06:08:00.053Z,66.50
2022-09-26T06:10:26.663Z,66.10
2022-09-26T06:12:53.496Z,66.60
2022-09-26T06:15:20.181Z,66.70
2022-09-26T06:17:48.138Z,67.10
2022-09-26T06:20:15.058Z,66.50
2022-09-26T06:22:42.872Z,66.50
2022-09-26T06:25:10.688Z,67.00
2022-09-26T06:27:38.713Z,66.40
2022-09-26T06:30:08.083Z,66.30
2022-09-26T06:32:36.167Z,66.30
2022-09-26T06:35:03.472Z,66.70
2022-09-26T06:37:30.170Z,66.60
2022-09-26T06:39:59.371Z,66.50
2022-09-26T06:42:26.545Z,66.10
2022-09-26T06:44:53.307Z,66.10
2022-09-26T06:47:19.998Z,65.80
2022-09-26T06:49:49.075Z,66.10
2022-09-26T06:52:15.779Z,66.10
2022-09-26T06:54:42.431Z,65.90
2022-09-26T06:57:14.249Z,65.80
2022-09-26T06:59:41.790Z,65.60
2022-09-26T07:02:09.264Z,67.30
2022-09-26T07:04:36.041Z,66.90
2022-09-26T07:07:02.914Z,69.00
2022-09-26T07:09:29.653Z,67.00
2022-09-26T07:12:14.118Z,65.50
2022-09-26T07:14:42.447Z,68.20
2022-09-26T07:17:15.552Z,66.90
2022-09-26T07:19:43.012Z,68.40
2022-09-26T07:22:10.131Z,67.10
2022-09-26T07:24:36.850Z,66.00
2022-09-26T07:27:03.781Z,66.40
2022-09-26T07:29:30.476Z,66.00
2022-09-26T07:31:58.566Z,66.20
2022-09-26T07:34:25.841Z,66.50
2022-09-26T07:36:52.898Z,70.60
2022-09-26T07:39:19.589Z,71.50
2022-09-26T07:41:46.728Z,68.90
2022-09-26T07:47:20.326Z,69.20
2022-09-26T07:50:05.872Z,70.10
2022-09-26T07:52:32.570Z,69.40
2022-09-26T07:54:59.218Z,69.40
2022-09-26T07:57:25.882Z,70.20
2022-09-26T07:59:54.192Z,69.10
2022-09-26T08:02:25.685Z,69.30
2022-09-26T08:04:58.822Z,70.70
2022-09-26T08:07:27.031Z,70.40
2022-09-26T08:09:54.226Z,73.20
2022-09-26T08:12:21.158Z,76.10
2022-09-26T08:14:52.926Z,73.60
2022-09-26T08:17:20.395Z,73.70
2022-09-26T08:19:47.074Z,74.70
2022-09-26T08:22:14.516Z,72.00
2022-09-26T08:24:41.936Z,72.90
2022-09-26T08:27:09.895Z,72.30
2022-09-26T08:29:36.589Z,71.70
2022-09-26T08:32:04.066Z,71.00
2022-09-26T08:34:32.146Z,70.80
2022-09-26T08:36:59.040Z,72.20
2022-09-26T08:39:33.139Z,72.80
2022-09-26T08:42:15.782Z,73.30
2022-09-26T08:45:38.889Z,73.80
2022-09-26T08:48:29.787Z,73.30
2022-09-26T08:51:28.301Z,72.40
2022-09-26T08:54:14.578Z,71.60
2022-09-26T08:56:48.652Z,71.50
2022-09-26T08:59:40.380Z,70.90
2022-09-26T09:02:31.573Z,71.10
2022-09-26T09:05:17.069Z,70.80
2022-09-26T09:07:49.229Z,70.10
2022-09-26T09:10:20.426Z,69.70
2022-09-26T09:13:24.476Z,70.10
2022-09-26T09:16:29.479Z,69.80
2022-09-26T09:19:18.452Z,69.10
2022-09-26T09:21:51.843Z,69.30
2022-09-26T09:24:39.993Z,69.30
2022-09-26T09:30:18.400Z,68.80
2022-09-26T09:32:50.791Z,68.70
2022-09-26T09:35:37.357Z,68.70
2022-09-26T09:38:07.106Z,68.80
2022-09-26T09:40:41.602Z,68.80
2022-09-26T09:43:26.602Z,68.80
2022-09-26T09:46:04.175Z,69.30
2022-09-26T09:48:30.907Z,68.10
2022-09-26T09:51:15.784Z,67.90
2022-09-26T09:54:15.146Z,68.00
2022-09-26T09:56:54.080Z,68.10
2022-09-26T09:59:58.213Z,68.20
2022-09-26T10:03:02.659Z,67.90
2022-09-26T10:05:59.638Z,67.80
2022-09-26T10:08:35.120Z,67.80
2022-09-26T10:11:23.116Z,67.80
2022-09-26T10:13:56.029Z,67.60
2022-09-26T10:16:25.009Z,67.70
2022-09-26T10:19:07.461Z,67.60
2022-09-26T10:21:40.610Z,67.60
2022-09-26T10:24:22.163Z,67.70
2022-09-26T10:26:50.765Z,67.80
2022-09-26T10:29:22.724Z,68.00
2022-09-26T10:31:55.549Z,68.20
2022-09-26T10:34:28.019Z,68.50
2022-09-26T10:36:55.944Z,68.80
2022-09-26T10:39:43.854Z,69.30
2022-09-26T10:42:16.325Z,69.30
2022-09-26T10:44:43.136Z,69.50
2022-09-26T10:47:19.256Z,69.50
2022-09-26T10:50:17.924Z,70.20
2022-09-26T10:52:56.414Z,70.40
2022-09-26T10:55:29.453Z,70.20
2022-09-26T10:58:00.917Z,70.00
2022-09-26T11:00:33.801Z,70.00
2022-09-26T11:03:00.826Z,70.60
2022-09-26T11:05:46.055Z,70.40
2022-09-26T11:08:14.107Z,70.40
2022-09-26T11:10:42.118Z,70.40
2022-09-26T11:13:20.763Z,70.80
2022-09-26T11:16:03.394Z,70.60
2022-09-26T11:18:45.130Z,70.50
2022-09-26T11:21:38.367Z,70.40
2022-09-26T11:24:25.931Z,70.80
2022-09-26T11:27:05.787Z,70.70
2022-09-26T11:29:53.129Z,70.70
2022-09-26T11:32:33.319Z,70.80
2022-09-26T11:35:02.970Z,71.20
2022-09-26T11:37:53.971Z,71.50
2022-09-26T11:40:45.212Z,71.70
2022-09-26T11:43:24.383Z,72.20
2022-09-26T11:46:11.107Z,71.80
2022-09-26T11:48:53.850Z,72.20
2022-09-26T11:51:44.290Z,72.20
2022-09-26T11:54:18.906Z,72.50
2022-09-26T11:57:03.736Z,73.30
2022-09-26T11:59:58.451Z,72.60
2022-09-26T12:02:25.174Z,73.40
2022-09-26T12:05:27.429Z,72.90
2022-09-26T12:08:15.870Z,73.30
2022-09-26T12:10:45.508Z,73.30
2022-09-26T12:13:20.471Z,73.40
2022-09-26T12:16:04.921Z,73.70
2022-09-26T12:18:53.371Z,73.50
2022-09-26T12:22:08.814Z,74.00
2022-09-26T12:25:10.780Z,74.20
2022-09-26T12:28:06.601Z,74.30
2022-09-26T12:31:03.864Z,74.70
2022-09-26T12:33:38.032Z,74.70
2022-09-26T12:36:23.226Z,74.50
2022-09-26T12:39:04.705Z,75.00
2022-09-26T12:41:38.717Z,74.80
2022-09-26T12:44:11.351Z,74.90
2022-09-26T12:46:47.327Z,74.80
2022-09-26T12:49:45.137Z,75.00
2022-09-26T12:52:17.649Z,75.00
2022-09-26T12:55:07.535Z,75.20
2022-09-26T12:57:40.165Z,75.40
2022-09-26T13:00:22.045Z,75.50
2022-09-26T13:03:09.730Z,75.30
2022-09-26T13:06:31.509Z,75.40
2022-09-26T13:09:46.771Z,75.20
2022-09-26T13:12:45.701Z,76.00
2022-09-26T13:15:40.000Z,75.50
2022-09-26T13:18:24.297Z,75.60
2022-09-26T13:21:03.271Z,75.10
2022-09-26T13:23:31.690Z,75.30
2022-09-26T13:26:14.131Z,75.30
2022-09-26T13:29:23.485Z,75.20
2022-09-26T13:31:47.327Z,74.80
2022-09-26T13:34:32.025Z,74.60
2022-09-26T13:36:59.950Z,74.60
2022-09-26T13:39:41.853Z,74.30
2022-09-26T13:42:26.758Z,74.20
2022-09-26T13:45:14.769Z,73.80
2022-09-26T13:47:49.699Z,73.50
2022-09-26T13:50:47.523Z,73.40
2022-09-26T13:53:42.778Z,73.40
2022-09-26T13:56:33.999Z,73.00
2022-09-26T13:59:05.824Z,72.90
2022-09-26T14:01:33.644Z,72.60
2022-09-26T14:04:19.186Z,72.30
2022-09-26T14:07:29.301Z,72.30
2022-09-26T14:10:12.224Z,72.30
2022-09-26T14:12:53.585Z,72.20
2022-09-26T14:15:50.697Z,71.60
2022-09-26T14:18:39.193Z,69.20
2022-09-26T14:21:25.780Z,70.20
2022-09-26T14:24:25.587Z,70.50
2022-09-26T14:27:10.572Z,70.40
2022-09-26T14:29:50.546Z,70.40
2022-09-26T14:32:26.294Z,70.00
2022-09-26T14:34:59.850Z,70.10
2022-09-26T14:37:31.543Z,69.70
2022-09-26T14:40:19.811Z,69.80
2022-09-26T14:42:46.469Z,69.70
2022-09-26T14:45:16.486Z,69.60
2022-09-26T14:47:55.093Z,69.30
2022-09-26T14:50:28.560Z,69.20
2022-09-26T14:53:00.868Z,68.70
2022-09-26T14:55:30.926Z,69.00
2022-09-26T14:58:37.203Z,68.70
2022-09-26T15:01:15.045Z,68.80
2022-09-26T15:03:41.975Z,68.90
2022-09-26T15:06:13.523Z,68.90
2022-09-26T15:08:40.722Z,68.80
2022-09-26T15:11:07.529Z,68.80
2022-09-26T15:13:45.963Z,68.90
2022-09-26T15:16:32.429Z,68.90
2022-09-26T15:19:15.796Z,69.20
2022-09-26T15:21:48.119Z,69.30
2022-09-26T15:24:29.950Z,69.50
2022-09-26T15:26:59.643Z,69.70
2022-09-26T15:29:26.786Z,70.00
2022-09-26T15:31:55.689Z,70.20
2022-09-26T15:34:38.881Z,70.20
2022-09-26T15:37:21.364Z,70.60
2022-09-26T15:39:48.118Z,71.00
2022-09-26T15:42:33.604Z,70.90
2022-09-26T15:45:01.800Z,71.20
2022-09-26T15:47:34.777Z,71.80
2022-09-26T15:50:10.378Z,72.00
2022-09-26T15:52:42.810Z,72.10
2022-09-26T15:55:18.134Z,72.30
2022-09-26T15:57:48.858Z,72.40
2022-09-26T16:00:16.264Z,73.10
2022-09-26T16:02:43.833Z,73.00
2022-09-26T16:05:13.134Z,73.30
2022-09-26T16:07:41.640Z,73.20
2022-09-26T16:10:29.541Z,73.40
2022-09-26T16:12:59.565Z,74.00
2022-09-26T16:15:29.287Z,73.70
2022-09-26T16:17:58.009Z,73.70
2022-09-26T16:20:30.726Z,74.00
2022-09-26T16:23:04.384Z,74.00
2022-09-26T16:25:47.875Z,74.30
2022-09-26T16:28:18.118Z,74.40
2022-09-26T16:30:55.573Z,74.30
2022-09-26T16:33:33.678Z,74.50
2022-09-26T16:36:35.102Z,74.70
2022-09-26T16:39:16.798Z,75.20
2022-09-26T16:44:40.353Z,75.00
2022-09-26T16:47:29.802Z,75.00
2022-09-26T16:49:56.562Z,75.10
2022-09-26T16:52:32.768Z,75.10
2022-09-26T16:55:01.636Z,74.80
2022-09-26T16:57:36.806Z,75.10
2022-09-26T17:00:33.042Z,75.20
2022-09-26T17:02:59.957Z,75.70
2022-09-26T17:05:27.051Z,75.60
2022-09-26T17:07:54.069Z,75.80
2022-09-26T17:10:24.421Z,76.10
2022-09-26T17:12:51.618Z,76.50
2022-09-26T17:15:27.223Z,76.40
2022-09-26T17:17:58.761Z,76.10
2022-09-26T17:20:25.773Z,76.20
2022-09-26T17:22:52.931Z,76.20
2022-09-26T17:25:19.916Z,76.50
2022-09-26T17:27:51.376Z,76.60
2022-09-26T17:30:19.509Z,77.60
2022-09-26T17:32:53.590Z,76.70
2022-09-26T17:35:25.015Z,76.80
2022-09-26T17:37:52.451Z,77.00
2022-09-26T17:40:24.254Z,76.80
2022-09-26T17:42:55.168Z,77.20
2022-09-26T17:45:27.901Z,77.50
2022-09-26T17:48:04.049Z,77.20
2022-09-26T17:50:32.907Z,77.10
2022-09-26T17:53:02.177Z,77.70
2022-09-26T17:55:31.603Z,77.50
2022-09-26T17:57:59.673Z,77.50
2022-09-26T18:00:31.820Z,77.30
2022-09-26T18:03:03.864Z,77.60
2022-09-26T18:05:37.880Z,77.50
2022-09-26T18:08:21.329Z,77.30
2022-09-26T18:10:51.906Z,77.30
2022-09-26T18:13:25.050Z,77.60
2022-09-26T18:15:55.836Z,78.40
2022-09-26T18:18:25.182Z,78.40
2022-09-26T18:20:54.005Z,78.30
2022-09-26T18:23:24.015Z,79.60
2022-09-26T18:25:53.776Z,79.50
2022-09-26T18:28:22.895Z,79.80
2022-09-26T18:30:57.747Z,79.70
2022-09-26T18:33:27.772Z,80.60
2022-09-26T18:35:55.108Z,80.30
2022-09-26T18:38:22.207Z,80.30
2022-09-26T18:40:54.744Z,80.40
2022-09-26T18:43:31.297Z,80.40
2022-09-26T18:45:58.463Z,80.60
2022-09-26T18:48:29.291Z,80.80
2022-09-26T18:50:57.615Z,81.20
2022-09-26T18:53:26.986Z,81.20
2022-09-26T18:56:13.675Z,80.80
2022-09-26T18:58:40.885Z,80.50
2022-09-26T19:01:30.898Z,80.70
2022-09-26T19:04:02.941Z,81.20
2022-09-26T19:06:38.600Z,81.30
2022-09-26T19:09:11.375Z,81.10
2022-09-26T19:11:38.201Z,81.90
2022-09-26T19:14:15.449Z,81.30
2022-09-26T19:16:43.735Z,81.50
2022-09-26T19:19:10.951Z,81.80
2022-09-26T19:21:41.824Z,82.50
2022-09-26T19:24:26.421Z,82.10
2022-09-26T19:26:59.737Z,82.20
2022-09-26T19:29:42.453Z,82.70
2022-09-26T19:32:18.502Z,82.70
2022-09-26T19:34:50.535Z,83.10
2022-09-26T19:37:17.374Z,83.10
2022-09-26T19:39:44.135Z,82.30
2022-09-26T19:42:10.959Z,82.30
2022-09-26T19:44:37.706Z,81.80
2022-09-26T19:47:04.693Z,83.60
2022-09-26T19:49:32.717Z,83.60
2022-09-26T19:52:02.672Z,83.10
2022-09-26T19:54:29.958Z,83.70
2022-09-26T19:56:57.201Z,83.40
2022-09-26T19:59:27.485Z,83.60
2022-09-26T20:01:54.640Z,83.30
2022-09-26T20:04:22.192Z,83.80
2022-09-26T20:06:48.925Z,83.80
2022-09-26T20:09:18.864Z,84.10
2022-09-26T20:11:46.200Z,84.00
2022-09-26T20:14:24.862Z,84.80
2022-09-26T20:17:01.048Z,84.20
2022-09-26T20:19:38.116Z,84.30
2022-09-26T20:22:07.941Z,84.60
2022-09-26T20:24:38.337Z,84.40
2022-09-26T20:27:07.508Z,84.40
2022-09-26T20:29:55.071Z,84.10
2022-09-26T20:32:21.886Z,84.60
2022-09-26T20:34:48.687Z,85.50
2022-09-26T20:37:15.802Z,85.00
2022-09-26T20:39:43.548Z,84.50
2022-09-26T20:42:16.101Z,84.80
2022-09-26T20:44:43.626Z,85.80
2022-09-26T20:47:15.008Z,85.90
2022-09-26T20:49:46.164Z,85.20
2022-09-26T20:52:20.510Z,85.00
2022-09-26T20:54:47.386Z,84.70
2022-09-26T20:57:17.157Z,84.70
2022-09-26T20:59:43.960Z,84.40
2022-09-26T21:02:32.448Z,84.40
2022-09-26T21:05:01.673Z,84.30
2022-09-26T21:07:31.316Z,84.10
2022-09-26T21:09:58.857Z,83.30
2022-09-26T21:12:25.548Z,83.00
2022-09-26T21:14:52.327Z,83.20
2022-09-26T21:17:22.734Z,83.10
2022-09-26T21:19:51.183Z,83.50
2022-09-26T21:22:20.747Z,84.40
2022-09-26T21:24:49.191Z,83.60
2022-09-26T21:27:16.077Z,83.40
2022-09-26T21:29:43.575Z,83.00
2022-09-26T21:32:17.029Z,83.00
2022-09-26T21:34:54.399Z,83.80
2022-09-26T21:37:21.176Z,84.30
2022-09-26T21:39:47.860Z,84.00
2022-09-26T21:42:14.622Z,84.00
2022-09-26T21:44:56.503Z,83.30
2022-09-26T21:47:24.545Z,83.30
2022-09-26T21:49:51.831Z,83.80
2022-09-26T21:53:03.300Z,83.40
2022-09-26T21:55:34.446Z,83.60
2022-09-26T21:58:05.369Z,83.80
2022-09-26T22:00:32.057Z,83.90
2022-09-26T22:02:59.738Z,83.80
2022-09-26T22:05:26.538Z,83.40
2022-09-26T22:07:53.212Z,83.30
2022-09-26T22:10:19.874Z,83.00
2022-09-26T22:12:46.922Z,83.20
2022-09-26T22:15:13.814Z,83.10
2022-09-26T22:17:40.522Z,83.00
2022-09-26T22:20:07.950Z,82.90
2022-09-26T22:22:34.853Z,82.70
2022-09-26T22:25:03.178Z,83.30
2022-09-26T22:27:31.420Z,82.30
2022-09-26T22:29:58.076Z,82.50
2022-09-26T22:32:25.097Z,82.60
2022-09-26T22:34:51.858Z,82.60
2022-09-26T22:37:18.658Z,82.40
2022-09-26T22:39:45.474Z,82.50
2022-09-26T22:42:12.180Z,82.60
2022-09-26T22:44:38.902Z,82.40
2022-09-26T22:47:05.600Z,82.40
2022-09-26T22:49:32.567Z,82.00
2022-09-26T22:51:59.722Z,81.90
2022-09-26T22:54:26.619Z,81.90
2022-09-26T22:56:53.298Z,81.70
2022-09-26T22:59:20.292Z,81.70
2022-09-26T23:01:47.042Z,81.50
2022-09-26T23:04:13.840Z,81.80
2022-09-26T23:06:40.590Z,81.70
2022-09-26T23:17:29.470Z,81.50
2022-09-26T23:19:56.104Z,81.60
2022-09-26T23:22:22.809Z,82.10
2022-09-26T23:24:49.582Z,82.80
2022-09-26T23:27:16.256Z,82.30
2022-09-26T23:29:42.934Z,82.40
2022-09-26T23:32:09.663Z,82.50
2022-09-26T23:34:36.355Z,82.40
2022-09-26T23:37:03.814Z,82.50
2022-09-26T23:39:30.474Z,82.70
2022-09-26T23:41:58.646Z,82.90
2022-09-26T23:44:25.785Z,83.30
2022-09-26T23:46:52.525Z,83.00
2022-09-26T23:49:19.217Z,83.60
2022-09-26T23:51:47.482Z,84.10
2022-09-26T23:54:14.448Z,83.40
2022-09-26T23:56:41.643Z,83.40
2022-09-26T23:59:08.758Z,83.20
